Port Imperial New Jersey — WBR3133 — position and weather

sailwx.info

Track history (hours):
 
Tides and Currents Weather Stations Pressure Air Temp Water Temp Dewpoint Dewpoint Depression Visibility Wind Speed Wind Dir Waves Ship Positions

Port Imperial New Jersey

Owner: PORT IMPERIAL FERRY CORP, WEEHAWKEN, NJ. More information available from US FCC via Universal Licensing System and Coast Guard Vessel Documentation Center.

Last reported at 2016-Dec-03 00:24 UTC. Time now 2016-Dec-03 13:44 UTC.
Position N 40°46' W 074°01'.

Length 31 m.

Type: Passenger vessel. MMSI: 366990550.

Date/timePositionNaut miles runAvg speedWind from/ knotsBaromVisibWave heightAir tempDewpointWater temp
2016-Dec-03 00:24N 40°46' W 074°01'3 3.6
2016-Dec-02 23:33N 40°43' W 074°01'0 0.2
2016-Dec-02 22:33N 40°43' W 074°01'0 0.3
2016-Dec-02 21:34N 40°43' W 074°01'0 0.1
2016-Dec-02 20:33N 40°43' W 074°01'3 0.7
2016-Dec-02 15:24N 40°47' W 074°01'3 3.5
2016-Dec-02 14:33N 40°44' W 074°01'0 0.2
2016-Dec-02 13:33N 40°44' W 074°01'0 0.1
2016-Dec-02 12:34N 40°44' W 074°01'0 0.0
2016-Dec-02 11:33N 40°44' W 074°01'3 2.0
2016-Dec-02 10:16N 40°46' W 074°01'0 0.0
2016-Dec-02 00:21N 40°46' W 074°01'3 3.6
2016-Dec-01 23:34N 40°43' W 074°01'0 0.4
2016-Dec-01 22:33N 40°43' W 074°01'0 0.1
2016-Dec-01 21:33N 40°43' W 074°01'0 0.1
2016-Dec-01 20:33N 40°43' W 074°01'3 0.6
2016-Dec-01 15:22N 40°46' W 074°01'2 3.0
2016-Dec-01 14:33N 40°44' W 074°01'0 0.1
2016-Dec-01 13:34N 40°44' W 074°01'0 0.1
2016-Dec-01 12:33N 40°44' W 074°01'0 0.2
2016-Dec-01 11:33N 40°44' W 074°01'2 0.2
2016-Dec-01 00:19N 40°46' W 074°01'3 3.9
2016-Nov-30 23:33N 40°43' W 074°01'0 0.1
2016-Nov-30 22:34N 40°43' W 074°01'0 0.2
2016-Nov-30 21:34N 40°43' W 074°02'0 0.1
2016-Nov-30 20:33N 40°43' W 074°01'3 0.6
2016-Nov-30 15:23N 40°47' W 074°01'3 3.4
2016-Nov-30 14:33N 40°44' W 074°01'0 0.2
2016-Nov-30 13:33N 40°44' W 074°01'0 0.1
2016-Nov-30 12:33N 40°44' W 074°01'0 0.1
2016-Nov-30 11:33N 40°44' W 074°01'2 0.2
2016-Nov-30 00:26N 40°46' W 074°01'3 3.1
2016-Nov-29 23:34N 40°44' W 074°01'0 0.2
2016-Nov-29 22:33N 40°43' W 074°01'0 0.1
2016-Nov-29 21:33N 40°44' W 074°01'0 0.4
2016-Nov-29 20:34N 40°43' W 074°01'2 1.6
2016-Nov-29 19:33N 40°45' W 074°01'2 1.8
2016-Nov-29 18:33N 40°47' W 074°01'0 0.0
2016-Nov-29 17:33N 40°47' W 074°01'0 0.0
2016-Nov-29 16:33N 40°47' W 074°01'0 0.0
2016-Nov-29 15:33N 40°47' W 074°01'3 2.8
2016-Nov-29 14:33N 40°44' W 074°01'0 0.1
2016-Nov-29 13:33N 40°44' W 074°01'0 0.0
2016-Nov-29 12:33N 40°44' W 074°01'1 1.4
2016-Nov-29 11:33N 40°45' W 074°01'1 0.1
2016-Nov-29 00:24N 40°46' W 074°01'3 3.3
2016-Nov-28 23:33N 40°44' W 074°01'0 0.1
2016-Nov-28 22:33N 40°43' W 074°01'0 0.2
2016-Nov-28 21:33N 40°43' W 074°01'0 0.1
2016-Nov-28 20:33N 40°43' W 074°01'3 0.6
2016-Nov-28 15:34N 40°46' W 074°01'0 0.0
2016-Nov-28 14:34N 40°46' W 074°01'0 0.0
2016-Nov-28 13:34N 40°46' W 074°01'0 0.0
2016-Nov-28 12:34N 40°46' W 074°01'0 0.0
2016-Nov-28 11:34N 40°46' W 074°01'  
2016-Nov-24 01:33N 40°46' W 074°01'3 3.4
2016-Nov-24 00:33N 40°43' W 074°01'1 0.5
2016-Nov-23 23:33N 40°43' W 074°02'0 0.1
2016-Nov-23 22:33N 40°43' W 074°02'0 0.1
2016-Nov-23 21:33N 40°43' W 074°02'0 0.1
2016-Nov-23 20:33N 40°43' W 074°02'0 0.0
2016-Nov-23 19:33N 40°43' W 074°02'0 0.2
2016-Nov-23 18:33N 40°43' W 074°02'0 0.3
2016-Nov-23 17:34N 40°43' W 074°02'0 0.0
2016-Nov-23 16:34N 40°43' W 074°02'0 0.0
2016-Nov-23 15:34N 40°43' W 074°02'0 0.2
2016-Nov-23 14:33N 40°43' W 074°01'0 0.1
2016-Nov-23 13:33N 40°43' W 074°01'0 0.0
2016-Nov-23 12:33N 40°43' W 074°02'0 0.1
2016-Nov-23 11:33N 40°43' W 074°01'1 1.2
2016-Nov-23 10:34N 40°44' W 074°02'1 0.2
2016-Nov-23 03:34N 40°43' W 074°02'0 0.4
2016-Nov-23 02:33N 40°43' W 074°01'0 0.2
2016-Nov-23 00:33N 40°43' W 074°02'  
Track history (hours):
 
Tides and Currents Weather Stations Pressure Air Temp Water Temp Dewpoint Dewpoint Depression Visibility Wind Speed Wind Dir Waves Ship Positions

Port Imperial New Jersey

Owner: PORT IMPERIAL FERRY CORP, WEEHAWKEN, NJ. More information available from US FCC via Universal Licensing System and Coast Guard Vessel Documentation Center.

Last reported at 2016-Dec-03 00:24 UTC. Time now 2016-Dec-03 13:44 UTC.
Position N 40°46' W 074°01'.

Length 31 m.

Type: Passenger vessel. MMSI: 366990550.

Date/timePositionNaut miles runAvg speedWind from/ knotsBaromVisibWave heightAir tempDewpointWater temp
2016-Dec-03 00:24N 40°46' W 074°01'3 3.6
2016-Dec-02 23:33N 40°43' W 074°01'0 0.2
2016-Dec-02 22:33N 40°43' W 074°01'0 0.3
2016-Dec-02 21:34N 40°43' W 074°01'0 0.1
2016-Dec-02 20:33N 40°43' W 074°01'3 0.7
2016-Dec-02 15:24N 40°47' W 074°01'3 3.5
2016-Dec-02 14:33N 40°44' W 074°01'0 0.2
2016-Dec-02 13:33N 40°44' W 074°01'0 0.1
2016-Dec-02 12:34N 40°44' W 074°01'0 0.0
2016-Dec-02 11:33N 40°44' W 074°01'3 2.0
2016-Dec-02 10:16N 40°46' W 074°01'0 0.0
2016-Dec-02 00:21N 40°46' W 074°01'3 3.6
2016-Dec-01 23:34N 40°43' W 074°01'0 0.4
2016-Dec-01 22:33N 40°43' W 074°01'0 0.1
2016-Dec-01 21:33N 40°43' W 074°01'0 0.1
2016-Dec-01 20:33N 40°43' W 074°01'3 0.6
2016-Dec-01 15:22N 40°46' W 074°01'2 3.0
2016-Dec-01 14:33N 40°44' W 074°01'0 0.1
2016-Dec-01 13:34N 40°44' W 074°01'0 0.1
2016-Dec-01 12:33N 40°44' W 074°01'0 0.2
2016-Dec-01 11:33N 40°44' W 074°01'2 0.2
2016-Dec-01 00:19N 40°46' W 074°01'3 3.9
2016-Nov-30 23:33N 40°43' W 074°01'0 0.1
2016-Nov-30 22:34N 40°43' W 074°01'0 0.2
2016-Nov-30 21:34N 40°43' W 074°02'0 0.1
2016-Nov-30 20:33N 40°43' W 074°01'3 0.6
2016-Nov-30 15:23N 40°47' W 074°01'3 3.4
2016-Nov-30 14:33N 40°44' W 074°01'0 0.2
2016-Nov-30 13:33N 40°44' W 074°01'0 0.1
2016-Nov-30 12:33N 40°44' W 074°01'0 0.1
2016-Nov-30 11:33N 40°44' W 074°01'2 0.2
2016-Nov-30 00:26N 40°46' W 074°01'3 3.1
2016-Nov-29 23:34N 40°44' W 074°01'0 0.2
2016-Nov-29 22:33N 40°43' W 074°01'0 0.1
2016-Nov-29 21:33N 40°44' W 074°01'0 0.4
2016-Nov-29 20:34N 40°43' W 074°01'2 1.6
2016-Nov-29 19:33N 40°45' W 074°01'2 1.8
2016-Nov-29 18:33N 40°47' W 074°01'0 0.0
2016-Nov-29 17:33N 40°47' W 074°01'0 0.0
2016-Nov-29 16:33N 40°47' W 074°01'0 0.0
2016-Nov-29 15:33N 40°47' W 074°01'3 2.8
2016-Nov-29 14:33N 40°44' W 074°01'0 0.1
2016-Nov-29 13:33N 40°44' W 074°01'0 0.0
2016-Nov-29 12:33N 40°44' W 074°01'1 1.4
2016-Nov-29 11:33N 40°45' W 074°01'1 0.1
2016-Nov-29 00:24N 40°46' W 074°01'3 3.3
2016-Nov-28 23:33N 40°44' W 074°01'0 0.1
2016-Nov-28 22:33N 40°43' W 074°01'0 0.2
2016-Nov-28 21:33N 40°43' W 074°01'0 0.1
2016-Nov-28 20:33N 40°43' W 074°01'3 0.6
2016-Nov-28 15:34N 40°46' W 074°01'0 0.0
2016-Nov-28 14:34N 40°46' W 074°01'0 0.0
2016-Nov-28 13:34N 40°46' W 074°01'0 0.0
2016-Nov-28 12:34N 40°46' W 074°01'0 0.0
2016-Nov-28 11:34N 40°46' W 074°01'  
2016-Nov-24 01:33N 40°46' W 074°01'3 3.4
2016-Nov-24 00:33N 40°43' W 074°01'1 0.5
2016-Nov-23 23:33N 40°43' W 074°02'0 0.1
2016-Nov-23 22:33N 40°43' W 074°02'0 0.1
2016-Nov-23 21:33N 40°43' W 074°02'0 0.1
2016-Nov-23 20:33N 40°43' W 074°02'0 0.0
2016-Nov-23 19:33N 40°43' W 074°02'0 0.2
2016-Nov-23 18:33N 40°43' W 074°02'0 0.3
2016-Nov-23 17:34N 40°43' W 074°02'0 0.0
2016-Nov-23 16:34N 40°43' W 074°02'0 0.0
2016-Nov-23 15:34N 40°43' W 074°02'0 0.2
2016-Nov-23 14:33N 40°43' W 074°01'0 0.1
2016-Nov-23 13:33N 40°43' W 074°01'0 0.0
2016-Nov-23 12:33N 40°43' W 074°02'0 0.1
2016-Nov-23 11:33N 40°43' W 074°01'1 1.2
2016-Nov-23 10:34N 40°44' W 074°02'1 0.2
2016-Nov-23 03:34N 40°43' W 074°02'0 0.4
2016-Nov-23 02:33N 40°43' W 074°01'0 0.2
2016-Nov-23 00:33N 40°43' W 074°02'  

Dump ship's entire track history